Bo Dulce, Puerto Rico
Current Conditions -  °F | °C
As of 10:56 PM on Wednesday 26 Nov 2014 (Local Time) from TJSJ Reporting Station
Broken Clouds Broken Clouds  
Wind Chill: 77°   Ceiling: 8500
Heat Index: 78°   Visibility: 10mi
Dew Point: 75°   Wind: 3mph
Humidity: 94%   Direction: 140°SE
Pressure: 30.03"   Gusts: NA
Location:  18.3754°N, 66.0577°W
Report Text: TJSJ 270256Z 14003KT 10SM SCT026 SCT040 BKN085 25/24 A3003 RMK AO2 RAE15 SLP168 P0003 60003 T02500239 50005
Loading
Personal Weather Stations






























Interactive Weather Map New forecast layout! Learn more

10-Day Weather Forecast

Advertisements
Track Severe Weather on mobile